Time;durP1;ratioP1;P1;durP2;ratioP2;P2;SDS_P1;SDS_P2;PMS_P1;PMS_P2;Temp;Humidity;BMP_temperature;BMP_pressure;BME280_temperature;BME280_humidity;BME280_pressure;Samples;Min_cycle;Max_cycle;Signal;HPM_P1;HPM_P2
2023/04/21 00:00:08;;;;;;;36.42;24.42;;;9.10;99.90;;;;;;5004142;28;20034;-62
2023/04/21 00:02:41;;;;;;;35.53;23.48;;;9.10;99.90;;;;;;5005529;28;20061;-62
2023/04/21 00:05:12;;;;;;;28.23;23.00;;;9.10;99.90;;;;;;5005505;28;20037;-63
2023/04/21 00:07:39;;;;;;;36.72;24.45;;;9.10;99.90;;;;;;5000930;28;21060;-63
2023/04/21 00:10:09;;;;;;;32.22;23.02;;;9.00;99.90;;;;;;4992620;28;20107;-62
2023/04/21 00:12:36;;;;;;;34.70;22.35;;;9.00;99.90;;;;;;5005063;28;20052;-62
2023/04/21 00:15:02;;;;;;;32.97;23.02;;;9.00;99.90;;;;;;5000022;28;20092;-62
2023/04/21 00:17:28;;;;;;;31.23;22.98;;;8.90;99.90;;;;;;4988784;28;20425;-62
2023/04/21 00:19:54;;;;;;;32.40;21.90;;;9.00;99.90;;;;;;5004768;28;20046;-62
2023/04/21 00:22:20;;;;;;;30.95;21.65;;;9.00;99.90;;;;;;5010682;28;20514;-62
2023/04/21 00:24:46;;;;;;;35.03;21.98;;;9.00;99.90;;;;;;5006805;28;20034;-63
2023/04/21 00:27:12;;;;;;;29.55;21.73;;;9.00;99.90;;;;;;5013736;28;20539;-61
2023/04/21 00:29:39;;;;;;;31.40;21.70;;;9.00;99.90;;;;;;4990622;28;20597;-62
2023/04/21 00:32:08;;;;;;;31.67;22.27;;;9.00;99.90;;;;;;4999726;28;20540;-62
2023/04/21 00:34:34;;;;;;;29.90;22.15;;;9.00;99.90;;;;;;5008423;28;20096;-62
2023/04/21 00:37:00;;;;;;;32.88;20.80;;;9.00;99.90;;;;;;5008376;28;20171;-62
2023/04/21 00:39:26;;;;;;;32.17;21.15;;;9.00;99.90;;;;;;5007420;28;20042;-62
2023/04/21 00:41:52;;;;;;;29.13;20.58;;;9.00;99.90;;;;;;5007173;28;20100;-63
2023/04/21 00:44:17;;;;;;;29.70;19.75;;;8.90;99.90;;;;;;5007627;28;20041;-63
2023/04/21 00:46:43;;;;;;;28.83;19.58;;;8.90;99.90;;;;;;5006697;28;20485;-62
2023/04/21 00:49:09;;;;;;;28.30;20.48;;;8.90;99.90;;;;;;5003844;28;20042;-62
2023/04/21 00:51:36;;;;;;;31.85;20.27;;;8.90;99.90;;;;;;5003493;28;20038;-62
2023/04/21 00:54:04;;;;;;;27.13;19.38;;;8.90;99.90;;;;;;5005802;28;20083;-63
2023/04/21 00:56:31;;;;;;;30.80;19.60;;;8.90;99.90;;;;;;5004986;28;20042;-61
2023/04/21 00:58:59;;;;;;;30.70;18.70;;;8.80;99.90;;;;;;4987615;28;20099;-62
2023/04/21 01:01:26;;;;;;;30.50;18.90;;;8.80;99.90;;;;;;5005137;28;20509;-62
2023/04/21 01:03:52;;;;;;;26.13;18.70;;;8.80;99.90;;;;;;5003489;28;20176;-62
2023/04/21 01:06:18;;;;;;;26.88;17.38;;;8.70;99.90;;;;;;4986271;28;20137;-62
2023/04/21 01:08:47;;;;;;;28.10;17.77;;;8.80;99.90;;;;;;4997748;28;20129;-62
2023/04/21 01:11:13;;;;;;;29.42;19.42;;;8.80;99.90;;;;;;5005707;28;20034;-63
2023/04/21 01:13:39;;;;;;;27.15;17.83;;;8.70;99.90;;;;;;5003664;28;20105;-62
2023/04/21 01:16:06;;;;;;;37.28;19.10;;;8.70;99.90;;;;;;4987665;28;20509;-63
2023/04/21 01:18:33;;;;;;;28.35;18.60;;;8.70;99.90;;;;;;5002143;28;20037;-62
2023/04/21 01:20:58;;;;;;;24.27;17.83;;;8.70;99.90;;;;;;5004439;28;20505;-63
2023/04/21 01:23:24;;;;;;;28.80;17.40;;;8.60;99.90;;;;;;4999701;28;20054;-62
2023/04/21 01:25:51;;;;;;;27.10;18.48;;;8.60;99.90;;;;;;5003140;28;20025;-63
2023/04/21 01:28:23;;;;;;;30.20;18.23;;;8.60;99.90;;;;;;5002160;28;20037;-62
2023/04/21 01:30:49;;;;;;;31.35;20.70;;;8.60;99.90;;;;;;5002350;28;20149;-62
2023/04/21 01:33:16;;;;;;;25.17;19.00;;;8.60;99.90;;;;;;5003902;28;20073;-62
2023/04/21 01:35:42;;;;;;;26.92;18.30;;;8.50;99.90;;;;;;4986396;28;20077;-63
2023/04/21 01:38:07;;;;;;;32.00;20.10;;;8.50;99.90;;;;;;5005483;28;20081;-63
2023/04/21 01:40:33;;;;;;;30.60;20.23;;;8.50;99.90;;;;;;5006028;28;20044;-62
2023/04/21 01:42:59;;;;;;;26.85;21.17;;;8.50;99.90;;;;;;5018330;28;20065;-62
2023/04/21 01:45:25;;;;;;;34.95;20.85;;;8.40;99.90;;;;;;5000886;28;20040;-63
2023/04/21 01:47:50;;;;;;;28.83;20.27;;;8.40;99.90;;;;;;5002617;28;20065;-62
2023/04/21 01:50:17;;;;;;;34.28;20.80;;;8.40;99.90;;;;;;5005098;28;20501;-63
2023/04/21 01:52:42;;;;;;;30.75;20.25;;;8.40;99.90;;;;;;5001485;28;20041;-62
2023/04/21 01:55:08;;;;;;;31.15;19.92;;;8.30;99.90;;;;;;5001289;28;20046;-62
2023/04/21 01:57:35;;;;;;;29.67;19.13;;;8.40;99.90;;;;;;5001856;28;20097;-62
2023/04/21 02:00:01;;;;;;;33.70;20.17;;;8.30;99.90;;;;;;5009480;28;20546;-63
2023/04/21 02:02:27;;;;;;;32.15;20.40;;;8.30;99.90;;;;;;5003587;28;20433;-62
2023/04/21 02:04:52;;;;;;;32.28;19.40;;;8.30;99.90;;;;;;5004366;28;20104;-62
2023/04/21 02:07:18;;;;;;;28.55;18.70;;;8.30;99.90;;;;;;5001023;28;20042;-62
2023/04/21 02:09:44;;;;;;;28.13;18.65;;;8.30;99.90;;;;;;5003846;28;20037;-62
2023/04/21 02:12:10;;;;;;;30.17;19.48;;;8.30;99.90;;;;;;5000071;28;20046;-63
2023/04/21 02:14:37;;;;;;;30.33;20.90;;;8.30;99.90;;;;;;4986613;28;20046;-62
2023/04/21 02:17:03;;;;;;;30.08;18.60;;;8.30;99.90;;;;;;5001686;28;20053;-61
2023/04/21 02:19:29;;;;;;;31.20;19.70;;;8.30;99.90;;;;;;5005915;28;20033;-63
2023/04/21 02:21:55;;;;;;;32.20;19.98;;;8.30;99.90;;;;;;5004377;28;20084;-63
2023/04/21 02:24:21;;;;;;;34.22;19.95;;;8.30;99.90;;;;;;5004917;28;20073;-62
2023/04/21 02:26:46;;;;;;;35.97;21.10;;;8.30;99.90;;;;;;5002393;28;20125;-63
2023/04/21 02:29:12;;;;;;;27.30;18.70;;;8.30;99.90;;;;;;4999196;28;20036;-62
2023/04/21 02:31:38;;;;;;;28.73;19.20;;;8.30;99.90;;;;;;4999617;28;20967;-63
2023/04/21 02:34:04;;;;;;;27.38;18.85;;;8.30;99.90;;;;;;5006424;28;20076;-62
2023/04/21 02:36:30;;;;;;;31.45;21.15;;;8.30;99.90;;;;;;5004920;28;20057;-63
2023/04/21 02:38:56;;;;;;;30.27;18.45;;;8.20;99.90;;;;;;4986864;28;20486;-62
2023/04/21 02:41:22;;;;;;;32.33;20.05;;;8.20;99.90;;;;;;5001624;28;20108;-62
2023/04/21 02:43:48;;;;;;;31.52;19.55;;;7.70;99.90;;;;;;4996737;28;20037;-62
2023/04/21 02:46:14;;;;;;;31.73;20.27;;;8.20;99.90;;;;;;5001323;28;20116;-62
2023/04/21 02:48:40;;;;;;;28.88;20.30;;;8.20;99.90;;;;;;4996429;28;20125;-63
2023/04/21 02:51:14;;;;;;;29.02;18.75;;;8.20;99.90;;;;;;4993979;28;20069;-62
2023/04/21 02:53:40;;;;;;;29.58;19.20;;;8.10;99.90;;;;;;5002130;28;20054;-63
2023/04/21 02:56:09;;;;;;;34.10;21.45;;;8.10;99.90;;;;;;4999915;28;20042;-63
2023/04/21 02:58:35;;;;;;;26.88;18.10;;;8.10;99.90;;;;;;5004092;28;20046;-61
2023/04/21 03:01:02;;;;;;;33.38;20.15;;;8.10;99.90;;;;;;5007706;28;20041;-62
2023/04/21 03:03:29;;;;;;;27.17;19.05;;;8.10;99.90;;;;;;5019924;28;20053;-62
2023/04/21 03:06:03;;;;;;;31.58;20.63;;;8.10;99.90;;;;;;5007103;28;20501;-63
2023/04/21 03:08:28;;;;;;;;;;;8.10;99.90;;;;;;5005893;28;20046;-63
2023/04/21 03:10:55;;;;;;;27.30;18.70;;;8.00;99.90;;;;;;5003418;28;20392;-63
2023/04/21 03:13:20;;;;;;;35.33;21.77;;;8.00;99.90;;;;;;5010374;28;20046;-62
2023/04/21 03:15:46;;;;;;;26.75;19.38;;;8.00;99.90;;;;;;5007160;28;20049;-62
2023/04/21 03:18:12;;;;;;;30.15;19.73;;;8.00;99.90;;;;;;5004977;28;20061;-62
2023/04/21 03:20:38;;;;;;;29.30;18.67;;;8.00;99.90;;;;;;5005813;28;20562;-63
2023/04/21 03:23:03;;;;;;;30.95;19.85;;;8.00;99.90;;;;;;5004267;28;20041;-62
2023/04/21 03:25:29;;;;;;;30.33;20.75;;;8.00;99.90;;;;;;5009317;28;20151;-62
2023/04/21 03:27:55;;;;;;;30.02;20.02;;;8.00;99.90;;;;;;5007021;28;20561;-62
2023/04/21 03:30:22;;;;;;;27.02;20.15;;;8.00;99.90;;;;;;5009760;28;20038;-63
2023/04/21 03:32:49;;;;;;;29.75;21.10;;;8.00;99.90;;;;;;5005832;28;20056;-62
2023/04/21 03:35:15;;;;;;;29.40;20.25;;;7.90;99.90;;;;;;5008645;28;20034;-62
2023/04/21 03:37:40;;;;;;;28.58;20.13;;;7.90;99.90;;;;;;5006842;28;20049;-62
2023/04/21 03:40:09;;;;;;;33.35;20.98;;;8.00;99.90;;;;;;5006792;28;20681;-62
2023/04/21 03:42:35;;;;;;;37.20;21.52;;;8.00;99.90;;;;;;5007517;28;20617;-62
2023/04/21 03:45:05;;;;;;;36.05;21.02;;;8.00;99.90;;;;;;5008077;28;20064;-62
2023/04/21 03:47:31;;;;;;;32.88;20.83;;;8.00;99.90;;;;;;5002604;28;20061;-63
2023/04/21 03:49:57;;;;;;;33.70;21.85;;;8.00;99.90;;;;;;5009118;28;20038;-62
2023/04/21 03:52:23;;;;;;;33.40;21.77;;;8.00;99.90;;;;;;5002871;28;20050;-62
2023/04/21 03:54:49;;;;;;;27.13;20.88;;;8.00;99.90;;;;;;5008532;28;20038;-63
2023/04/21 03:57:15;;;;;;;29.08;20.20;;;8.00;99.90;;;;;;5009564;28;20045;-62
2023/04/21 03:59:41;;;;;;;32.47;21.17;;;8.00;99.90;;;;;;4999931;28;20081;-61
2023/04/21 04:02:07;;;;;;;30.55;20.48;;;8.00;99.90;;;;;;5001132;28;20206;-62
2023/04/21 04:04:33;;;;;;;28.23;20.23;;;8.00;99.90;;;;;;5008424;28;20065;-62
2023/04/21 04:06:59;;;;;;;25.45;18.75;;;8.00;99.90;;;;;;4983238;28;20052;-62
2023/04/21 04:09:25;;;;;;;25.02;19.30;;;8.00;99.90;;;;;;5000594;28;20066;-62
2023/04/21 04:11:50;;;;;;;26.58;20.05;;;8.00;99.90;;;;;;5002167;28;20049;-62
2023/04/21 04:14:16;;;;;;;23.77;18.98;;;7.90;99.90;;;;;;5021121;28;20509;-62
2023/04/21 04:16:42;;;;;;;28.08;20.27;;;7.90;99.90;;;;;;4987875;28;20500;-61
2023/04/21 04:19:08;;;;;;;25.80;19.25;;;8.00;99.90;;;;;;5006411;28;20069;-62
2023/04/21 04:21:34;;;;;;;26.65;17.83;;;8.00;99.90;;;;;;5007957;28;20049;-62
2023/04/21 04:24:01;;;;;;;26.23;18.55;;;8.00;99.90;;;;;;5009317;28;20461;-62
2023/04/21 04:26:27;;;;;;;28.98;19.75;;;8.00;99.90;;;;;;5001807;28;20050;-63
2023/04/21 04:28:55;;;;;;;30.13;18.52;;;8.00;99.90;;;;;;5006278;28;20029;-63
2023/04/21 04:31:24;;;;;;;30.73;18.58;;;8.00;99.90;;;;;;4995029;28;20524;-63
2023/04/21 04:33:50;;;;;;;24.25;16.73;;;8.00;99.90;;;;;;4998810;28;20069;-62
2023/04/21 04:36:16;;;;;;;26.40;17.52;;;8.00;99.90;;;;;;5005308;28;20038;-62
2023/04/21 04:38:42;;;;;;;27.65;17.55;;;8.00;99.90;;;;;;4988597;28;20079;-62
2023/04/21 04:41:08;;;;;;;27.60;16.95;;;8.00;99.90;;;;;;5002733;28;20042;-62
2023/04/21 04:43:38;;;;;;;22.25;15.88;;;8.10;99.90;;;;;;4999231;28;20030;-62
2023/04/21 04:46:04;;;;;;;24.65;16.75;;;8.10;99.90;;;;;;5006455;28;20386;-63
2023/04/21 04:48:31;;;;;;;23.23;16.23;;;8.10;99.90;;;;;;5004006;28;20034;-63
2023/04/21 04:50:56;;;;;;;32.30;17.73;;;8.40;99.90;;;;;;5003252;28;20041;-62
2023/04/21 04:53:22;;;;;;;26.35;15.30;;;8.20;99.90;;;;;;5003151;28;20041;-62
2023/04/21 04:55:48;;;;;;;27.08;16.42;;;8.20;99.90;;;;;;5006668;28;20077;-63
2023/04/21 04:58:14;;;;;;;24.73;15.27;;;8.20;99.90;;;;;;5005201;28;20109;-62
2023/04/21 05:00:40;;;;;;;23.73;15.57;;;8.20;99.90;;;;;;4997037;28;20056;-63
2023/04/21 05:03:05;;;;;;;22.33;15.75;;;8.20;99.90;;;;;;5009794;28;20030;-63
2023/04/21 05:05:31;;;;;;;24.90;15.98;;;8.20;99.90;;;;;;5006019;28;20038;-63
2023/04/21 05:07:57;;;;;;;28.02;16.33;;;8.30;99.90;;;;;;5002424;28;20045;-63
2023/04/21 05:10:23;;;;;;;25.00;15.40;;;8.30;99.90;;;;;;5005496;28;20080;-62
2023/04/21 05:12:49;;;;;;;20.02;14.88;;;8.30;99.90;;;;;;5003839;28;20104;-62
2023/04/21 05:15:16;;;;;;;21.55;15.10;;;8.40;99.90;;;;;;4999900;28;20050;-62
2023/04/21 05:17:41;;;;;;;21.75;14.30;;;8.40;99.90;;;;;;4999724;28;20124;-62
2023/04/21 05:20:08;;;;;;;25.60;16.00;;;8.50;99.90;;;;;;5003233;28;20129;-62
2023/04/21 05:22:40;;;;;;;21.48;15.10;;;8.90;99.90;;;;;;5005783;28;20382;-62
2023/04/21 05:25:06;;;;;;;22.90;14.60;;;8.60;99.90;;;;;;5006701;28;20068;-62
2023/04/21 05:27:35;;;;;;;24.38;14.32;;;8.60;99.90;;;;;;5003569;28;20077;-62
2023/04/21 05:30:01;;;;;;;23.85;13.38;;;8.60;99.90;;;;;;4999250;28;20045;-63
2023/04/21 05:32:28;;;;;;;20.35;13.38;;;8.60;99.90;;;;;;4996018;28;20038;-62
2023/04/21 05:34:53;;;;;;;23.08;14.50;;;8.70;99.90;;;;;;4997755;28;20121;-62
2023/04/21 05:37:19;;;;;;;18.67;13.23;;;8.70;99.90;;;;;;4999314;28;20048;-60
2023/04/21 05:39:45;;;;;;;24.58;14.52;;;8.70;99.90;;;;;;5002523;28;20038;-61
2023/04/21 05:42:11;;;;;;;25.90;14.45;;;8.80;99.90;;;;;;5020052;28;20112;-62
2023/04/21 05:44:37;;;;;;;19.88;13.40;;;8.90;99.90;;;;;;4985780;28;20065;-59
2023/04/21 05:47:06;;;;;;;22.67;13.93;;;8.90;99.90;;;;;;5000931;28;20191;-61
2023/04/21 05:49:32;;;;;;;26.38;13.80;;;8.90;99.90;;;;;;5002917;28;20058;-60
2023/04/21 05:51:58;;;;;;;23.40;14.65;;;9.00;99.90;;;;;;4993703;28;20057;-61
2023/04/21 05:54:24;;;;;;;20.83;14.23;;;9.00;99.90;;;;;;5003892;28;20045;-61
2023/04/21 05:56:50;;;;;;;23.80;13.18;;;9.10;99.90;;;;;;5000062;28;20049;-62
2023/04/21 05:59:15;;;;;;;21.92;13.05;;;9.10;99.90;;;;;;5002156;28;20172;-62
2023/04/21 06:01:42;;;;;;;21.77;13.35;;;9.20;99.90;;;;;;4982612;28;20045;-61
2023/04/21 06:04:08;;;;;;;20.25;13.68;;;9.20;99.90;;;;;;4984799;28;22327;-60
2023/04/21 06:06:33;;;;;;;17.85;12.07;;;9.30;99.90;;;;;;5001203;28;20042;-61
2023/04/21 06:08:59;;;;;;;18.90;11.50;;;9.30;99.90;;;;;;5014356;28;20077;-61
2023/04/21 06:11:25;;;;;;;23.23;12.52;;;9.40;99.90;;;;;;5000749;28;20074;-61
2023/04/21 06:13:57;;;;;;;19.17;13.20;;;9.50;99.90;;;;;;5019480;28;20037;-61
2023/04/21 06:16:22;;;;;;;18.50;12.40;;;9.60;99.90;;;;;;4999368;28;20046;-60
2023/04/21 06:18:48;;;;;;;19.35;11.38;;;9.60;99.90;;;;;;4979505;28;20061;-60
2023/04/21 06:21:14;;;;;;;19.88;13.20;;;9.70;99.90;;;;;;5002884;28;20037;-59
2023/04/21 06:23:41;;;;;;;19.48;12.15;;;9.80;99.90;;;;;;4986794;28;20053;-60
2023/04/21 06:26:06;;;;;;;18.17;12.13;;;9.80;99.90;;;;;;4995380;28;20046;-61
2023/04/21 06:28:33;;;;;;;16.42;12.50;;;9.90;99.90;;;;;;5002176;28;20041;-61
2023/04/21 06:31:00;;;;;;;20.67;11.68;;;9.90;99.90;;;;;;5000450;28;20048;-61
2023/04/21 06:33:26;;;;;;;20.02;11.63;;;10.00;99.90;;;;;;4997838;28;20038;-59
2023/04/21 06:35:52;;;;;;;18.88;12.63;;;10.00;99.90;;;;;;5001174;28;20579;-60
2023/04/21 06:38:18;;;;;;;17.77;11.27;;;10.10;99.90;;;;;;5001774;28;20099;-61
2023/04/21 06:40:44;;;;;;;20.52;10.75;;;10.10;99.90;;;;;;5007306;28;20493;-59
2023/04/21 06:43:10;;;;;;;17.48;12.20;;;10.20;99.90;;;;;;4999993;28;20160;-60
2023/04/21 06:45:36;;;;;;;20.63;11.68;;;10.20;99.90;;;;;;5004441;28;20409;-61
2023/04/21 06:48:10;;;;;;;21.27;11.55;;;10.20;99.90;;;;;;4997480;28;20121;-61
2023/04/21 06:50:36;;;;;;;16.77;12.13;;;10.30;99.90;;;;;;4998038;28;20067;-61
2023/04/21 06:53:02;;;;;;;22.50;13.00;;;10.30;99.90;;;;;;4985505;28;20046;-61
2023/04/21 06:55:27;;;;;;;18.80;12.60;;;10.40;99.90;;;;;;4997125;28;20050;-61
2023/04/21 06:57:53;;;;;;;19.40;11.93;;;10.40;99.90;;;;;;4999120;28;20077;-59
2023/04/21 07:00:19;;;;;;;17.65;10.85;;;10.50;99.90;;;;;;4982932;28;20129;-61
2023/04/21 07:02:45;;;;;;;20.70;11.57;;;10.50;99.90;;;;;;4996052;28;20076;-60
2023/04/21 07:05:11;;;;;;;16.42;11.18;;;10.60;99.90;;;;;;4996273;28;20607;-62
2023/04/21 07:07:37;;;;;;;18.88;11.75;;;10.70;99.90;;;;;;4999574;28;20047;-60
2023/04/21 07:10:02;;;;;;;19.83;12.35;;;10.80;99.90;;;;;;5001697;28;20041;-61
2023/04/21 07:12:28;;;;;;;18.83;11.80;;;10.90;99.90;;;;;;5003034;28;20402;-60
2023/04/21 07:14:54;;;;;;;18.38;11.48;;;11.00;99.90;;;;;;5003444;28;20072;-61
2023/04/21 07:17:20;;;;;;;18.85;11.10;;;11.20;99.90;;;;;;4996035;28;20065;-60
2023/04/21 07:19:46;;;;;;;18.58;11.90;;;11.20;99.90;;;;;;5015083;28;20034;-60
2023/04/21 07:22:11;;;;;;;17.42;11.73;;;11.30;99.90;;;;;;4996840;28;20507;-61
2023/04/21 07:24:38;;;;;;;16.77;11.93;;;11.40;99.90;;;;;;4994585;28;20041;-59
2023/04/21 07:27:03;;;;;;;23.95;12.45;;;11.50;99.90;;;;;;5003590;28;20046;-61
2023/04/21 07:29:29;;;;;;;20.52;12.02;;;11.70;99.90;;;;;;4996545;28;20069;-60
2023/04/21 07:31:57;;;;;;;22.45;11.80;;;11.80;99.90;;;;;;5001857;28;20375;-63
2023/04/21 07:34:23;;;;;;;19.13;11.35;;;11.90;99.90;;;;;;4997442;28;20126;-61
2023/04/21 07:36:50;;;;;;;23.38;12.95;;;12.00;99.90;;;;;;4997210;28;20042;-61
2023/04/21 07:39:16;;;;;;;22.05;11.73;;;12.10;99.90;;;;;;5017085;28;20054;-62
2023/04/21 07:41:41;;;;;;;23.23;11.13;;;12.20;99.90;;;;;;4998235;28;20694;-61
2023/04/21 07:44:07;;;;;;;19.30;11.02;;;12.30;99.90;;;;;;5002420;28;20041;-60
2023/04/21 07:46:33;;;;;;;19.98;10.68;;;12.30;99.90;;;;;;4986830;28;20151;-59
2023/04/21 07:48:59;;;;;;;19.20;11.30;;;12.40;99.90;;;;;;5006608;28;20069;-62
2023/04/21 07:51:28;;;;;;;19.60;11.00;;;12.40;99.90;;;;;;5004358;28;20124;-61
2023/04/21 07:53:54;;;;;;;20.48;11.63;;;12.40;99.90;;;;;;5002545;28;20045;-59
2023/04/21 07:56:20;;;;;;;22.42;11.30;;;12.40;99.90;;;;;;4995907;28;20050;-60
2023/04/21 07:58:46;;;;;;;17.23;11.20;;;12.40;99.90;;;;;;5001508;28;20512;-59
2023/04/21 08:01:12;;;;;;;16.40;11.43;;;12.50;99.90;;;;;;5001055;28;20062;-60
2023/04/21 08:03:38;;;;;;;17.15;11.40;;;12.30;99.90;;;;;;5004015;28;20103;-61
2023/04/21 08:06:04;;;;;;;20.02;11.00;;;12.30;99.90;;;;;;5005270;28;20096;-61
2023/04/21 08:08:30;;;;;;;21.30;10.93;;;12.30;99.90;;;;;;4983251;28;20120;-60
2023/04/21 08:10:55;;;;;;;20.45;11.23;;;12.40;99.90;;;;;;5006088;28;20152;-59
2023/04/21 08:13:24;;;;;;;16.77;11.05;;;12.50;99.90;;;;;;5019678;28;20049;-60
2023/04/21 08:15:50;;;;;;;20.85;11.82;;;12.60;99.90;;;;;;5008373;28;22223;-60
2023/04/21 08:18:17;;;;;;;20.17;11.18;;;12.70;99.90;;;;;;5000933;28;20104;-61
2023/04/21 08:20:44;;;;;;;18.98;10.88;;;12.80;99.90;;;;;;5005058;28;20053;-61
2023/04/21 08:23:09;;;;;;;20.00;10.73;;;12.90;99.90;;;;;;5002757;28;20037;-59
2023/04/21 08:25:35;;;;;;;22.13;11.20;;;13.00;99.90;;;;;;5006832;28;20108;-60
2023/04/21 08:28:01;;;;;;;22.85;11.52;;;13.20;99.90;;;;;;4985578;28;20406;-60
2023/04/21 08:30:28;;;;;;;16.30;10.70;;;13.40;99.90;;;;;;5003400;28;20046;-61
2023/04/21 08:32:53;;;;;;;22.40;12.57;;;13.40;99.90;;;;;;5006736;28;20041;-62
2023/04/21 08:35:19;;;;;;;14.93;11.38;;;13.50;99.90;;;;;;5000651;28;20100;-60
2023/04/21 08:37:45;;;;;;;19.30;10.43;;;13.60;99.90;;;;;;4987568;28;20567;-61
2023/04/21 08:40:11;;;;;;;17.23;10.60;;;13.70;99.90;;;;;;5007548;28;20112;-61
2023/04/21 08:42:37;;;;;;;18.60;11.05;;;13.80;99.90;;;;;;4997230;28;20048;-60
2023/04/21 08:45:05;;;;;;;17.38;10.63;;;13.90;99.90;;;;;;4994523;28;20108;-60
2023/04/21 08:47:32;;;;;;;20.48;11.45;;;14.10;99.90;;;;;;4998476;28;20768;-60
2023/04/21 08:49:58;;;;;;;17.67;11.40;;;14.30;99.90;;;;;;5000015;28;20046;-59
2023/04/21 08:52:24;;;;;;;13.68;10.90;;;14.40;99.90;;;;;;4999216;28;20049;-61
2023/04/21 08:54:52;;;;;;;16.95;11.20;;;14.50;99.90;;;;;;5005116;28;20128;-62
2023/04/21 08:57:18;;;;;;;19.95;10.30;;;14.60;99.90;;;;;;5000907;28;20133;-60
2023/04/21 08:59:45;;;;;;;17.15;10.80;;;14.70;99.90;;;;;;5002497;28;20046;-60
2023/04/21 09:02:11;;;;;;;17.95;10.82;;;14.80;99.90;;;;;;5001872;28;20049;-61
2023/04/21 09:04:39;;;;;;;21.60;11.25;;;14.90;99.90;;;;;;4999076;28;20617;-61
2023/04/21 09:07:05;;;;;;;18.77;9.88;;;14.90;99.90;;;;;;4999473;28;20042;-64
2023/04/21 09:09:30;;;;;;;15.68;10.05;;;15.00;99.90;;;;;;4996600;28;20040;-60
2023/04/21 09:12:00;;;;;;;16.55;11.85;;;15.10;99.90;;;;;;5002208;28;20042;-62
2023/04/21 09:14:31;;;;;;;17.88;10.77;;;15.20;99.90;;;;;;4988962;28;20395;-62
2023/04/21 09:17:02;;;;;;;18.50;10.15;;;15.30;99.90;;;;;;5005469;28;20064;-62
2023/04/21 09:19:33;;;;;;;15.27;10.65;;;15.30;99.90;;;;;;4987235;28;20049;-62
2023/04/21 09:22:00;;;;;;;13.40;9.40;;;15.50;99.90;;;;;;5002635;28;20169;-61
2023/04/21 09:24:26;;;;;;;12.68;9.80;;;15.60;99.90;;;;;;5003344;28;20053;-60
2023/04/21 09:26:52;;;;;;;16.67;10.02;;;15.60;99.90;;;;;;5003211;28;20042;-62
2023/04/21 09:29:24;;;;;;;15.93;9.90;;;15.70;99.90;;;;;;5003331;28;20050;-61
2023/04/21 09:31:51;;;;;;;18.67;10.68;;;15.90;99.90;;;;;;4998079;28;20047;-62
2023/04/21 09:34:23;;;;;;;16.33;9.85;;;16.00;99.90;;;;;;5006760;28;20038;-62
2023/04/21 09:37:01;;;;;;;16.52;10.13;;;16.10;99.90;;;;;;5001240;28;20072;-62
2023/04/21 09:39:33;;;;;;;20.05;11.23;;;16.10;99.90;;;;;;5005342;28;20504;-59
2023/04/21 09:42:00;;;;;;;16.98;10.35;;;16.20;99.90;;;;;;4998765;28;20034;-61
2023/04/21 09:44:26;;;;;;;16.33;10.35;;;16.20;99.90;;;;;;5004976;28;20172;-61
2023/04/21 09:47:01;;;;;;;16.52;10.45;;;16.40;99.90;;;;;;5001994;28;20049;-60
2023/04/21 09:49:30;;;;;;;21.48;10.05;;;16.40;99.90;;;;;;4990304;28;20045;-60
2023/04/21 09:52:02;;;;;;;21.30;10.88;;;16.30;99.90;;;;;;5003336;28;20080;-60
2023/04/21 09:54:31;;;;;;;17.42;10.27;;;16.30;99.90;;;;;;5008427;28;20037;-61
2023/04/21 09:57:04;;;;;;;13.27;10.07;;;16.20;99.90;;;;;;5003277;28;20046;-60
2023/04/21 09:59:44;;;;;;;13.52;10.93;;;16.10;99.90;;;;;;5004754;28;21153;-59
2023/04/21 10:02:11;;;;;;;21.00;10.55;;;15.90;99.90;;;;;;5003093;28;20500;-60
2023/04/21 10:04:40;;;;;;;19.13;10.07;;;15.90;99.90;;;;;;5006257;28;20038;-59
2023/04/21 10:07:08;;;;;;;15.77;10.15;;;16.00;99.90;;;;;;5000746;28;20056;-60
2023/04/21 10:09:54;;;;;;;18.23;10.25;;;16.20;99.90;;;;;;5001608;28;20049;-60
2023/04/21 10:12:22;;;;;;;16.15;10.23;;;16.50;99.90;;;;;;5002661;28;20042;-60
2023/04/21 10:14:52;;;;;;;14.90;9.82;;;16.50;99.90;;;;;;5003866;28;20087;-61
2023/04/21 10:17:25;;;;;;;20.13;9.93;;;16.30;99.90;;;;;;5000793;28;20050;-60
2023/04/21 10:19:57;;;;;;;14.75;9.10;;;16.20;99.90;;;;;;5017851;28;20069;-61
2023/04/21 10:22:30;;;;;;;20.98;9.82;;;16.20;99.90;;;;;;5005504;28;20046;-60
2023/04/21 10:24:57;;;;;;;;;;;16.30;99.90;;;;;;4981854;28;20568;-59
2023/04/21 10:27:40;;;;;;;17.50;9.93;;;16.50;99.90;;;;;;5001629;28;20036;-60
2023/04/21 10:30:25;;;;;;;15.32;10.20;;;16.70;99.90;;;;;;5002011;28;20041;-60
2023/04/21 10:33:04;;;;;;;15.35;9.57;;;17.00;99.90;;;;;;5001940;28;20037;-60
2023/04/21 10:36:03;;;;;;;14.73;9.70;;;16.80;99.90;;;;;;5004036;28;20042;-59
2023/04/21 10:38:41;;;;;;;16.95;10.02;;;16.80;99.90;;;;;;5021816;28;20051;-60
2023/04/21 10:41:30;;;;;;;17.30;9.50;;;16.60;99.90;;;;;;5007572;28;20038;-61
2023/04/21 10:44:10;;;;;;;19.17;9.98;;;16.90;99.90;;;;;;4998849;28;20366;-60
2023/04/21 10:46:39;;;;;;;18.13;10.38;;;17.20;99.90;;;;;;5022330;28;20046;-61
2023/04/21 10:49:08;;;;;;;17.38;10.05;;;17.50;99.90;;;;;;5015749;28;20444;-60
2023/04/21 10:51:56;;;;;;;16.45;9.95;;;17.70;99.90;;;;;;4996021;28;20070;-60
2023/04/21 10:54:26;;;;;;;14.73;9.93;;;17.90;99.90;;;;;;5018680;28;20460;-61
2023/04/21 10:56:54;;;;;;;15.45;10.23;;;17.90;99.70;;;;;;4998738;28;20557;-61
2023/04/21 10:59:20;;;;;;;19.48;11.15;;;18.00;99.90;;;;;;5003930;28;20042;-60
2023/04/21 11:01:46;;;;;;;15.82;10.35;;;17.90;99.90;;;;;;5001754;28;20053;-60
2023/04/21 11:04:17;;;;;;;16.80;10.40;;;17.80;99.80;;;;;;5001430;28;20060;-60
2023/04/21 11:07:03;;;;;;;16.27;10.20;;;17.60;99.90;;;;;;4998667;28;20046;-60
2023/04/21 11:09:29;;;;;;;14.63;9.35;;;17.40;99.90;;;;;;5001424;28;20046;-60
2023/04/21 11:12:03;;;;;;;16.65;10.38;;;17.40;99.90;;;;;;4987015;28;20121;-60
2023/04/21 11:14:30;;;;;;;13.07;9.52;;;17.80;99.90;;;;;;5022306;28;20056;-60
2023/04/21 11:16:55;;;;;;;19.92;10.93;;;18.10;99.80;;;;;;4985934;28;20355;-60
2023/04/21 11:19:23;;;;;;;17.55;10.40;;;18.40;99.70;;;;;;4997091;28;20052;-60
2023/04/21 11:21:49;;;;;;;14.27;10.05;;;18.60;98.90;;;;;;5000293;28;20077;-59
2023/04/21 11:24:15;;;;;;;13.60;9.05;;;18.60;98.70;;;;;;5009025;28;20079;-60
2023/04/21 11:26:44;;;;;;;14.35;9.50;;;18.60;99.10;;;;;;5001756;28;20061;-60
2023/04/21 11:29:10;;;;;;;12.32;9.82;;;18.90;98.90;;;;;;5004481;28;20041;-61
2023/04/21 11:31:38;;;;;;;14.40;9.32;;;19.20;98.00;;;;;;5007270;28;20035;-60
2023/04/21 11:34:05;;;;;;;15.30;10.05;;;19.10;97.70;;;;;;5002554;28;20077;-61
2023/04/21 11:36:33;;;;;;;13.52;8.88;;;19.00;97.10;;;;;;5001792;28;20113;-61
2023/04/21 11:39:02;;;;;;;15.07;9.60;;;19.00;97.50;;;;;;4981503;28;20057;-65
2023/04/21 11:41:28;;;;;;;13.52;9.52;;;19.00;97.20;;;;;;4993800;28;20093;-66
2023/04/21 11:43:54;;;;;;;15.77;9.30;;;18.70;97.30;;;;;;4996254;28;20038;-61
2023/04/21 11:46:25;;;;;;;15.07;8.60;;;18.60;97.80;;;;;;5002191;28;20100;-66
2023/04/21 11:49:10;;;;;;;15.38;9.27;;;18.40;97.40;;;;;;4994055;28;20076;-62
2023/04/21 11:51:38;;;;;;;17.02;9.60;;;18.30;97.60;;;;;;5000989;28;20142;-66
2023/04/21 11:54:06;;;;;;;15.98;9.00;;;18.20;98.00;;;;;;5003100;28;20046;-62
2023/04/21 11:56:39;;;;;;;14.30;9.27;;;18.40;97.90;;;;;;5006429;28;20049;-63
2023/04/21 11:59:25;;;;;;;14.73;8.57;;;18.30;97.60;;;;;;5003054;28;20038;-62
2023/04/21 12:01:52;;;;;;;13.80;8.25;;;18.20;97.20;;;;;;5001167;28;20042;-63
2023/04/21 12:04:21;;;;;;;13.45;8.85;;;18.10;97.40;;;;;;5006364;28;20198;-65
2023/04/21 12:06:58;;;;;;;12.68;8.63;;;18.00;97.50;;;;;;4998324;28;20038;-62
2023/04/21 12:09:24;;;;;;;13.55;8.77;;;18.00;97.60;;;;;;5003886;28;20049;-63
2023/04/21 12:11:53;;;;;;;13.50;8.82;;;18.10;97.90;;;;;;5006324;28;20076;-63
2023/04/21 12:14:22;;;;;;;12.55;7.15;;;18.10;97.10;;;;;;5007022;28;20129;-62
2023/04/21 12:16:57;;;;;;;16.52;7.78;;;18.10;96.80;;;;;;5006666;28;20038;-63
2023/04/21 12:19:43;;;;;;;15.13;8.50;;;18.10;96.70;;;;;;4992959;28;20040;-62
2023/04/21 12:22:11;;;;;;;14.27;7.18;;;18.00;96.60;;;;;;5007678;28;20093;-61
2023/04/21 12:24:37;;;;;;;13.60;7.45;;;18.10;97.30;;;;;;4986315;28;20041;-63
2023/04/21 12:27:03;;;;;;;14.73;8.23;;;18.20;97.10;;;;;;4993405;28;20056;-62
2023/04/21 12:29:29;;;;;;;12.48;7.47;;;18.30;97.60;;;;;;5004482;28;20060;-63
2023/04/21 12:31:55;;;;;;;12.10;7.25;;;18.30;97.00;;;;;;5024878;28;20038;-62
2023/04/21 12:34:20;;;;;;;10.23;6.25;;;18.20;95.90;;;;;;5005892;28;20070;-62